Time;durP1;ratioP1;P1;durP2;ratioP2;P2;SDS_P1;SDS_P2;PMS_P1;PMS_P2;Temp;Humidity;BMP_temperature;BMP_pressure;BME280_temperature;BME280_humidity;BME280_pressure;Samples;Min_cycle;Max_cycle;Signal;HPM_P1;HPM_P2
2023/08/21 00:01:21;;;;;;;16.45;8.65;;;;;;;25.13;100.00;100549.41;20954482;28;20451;-73
2023/08/21 00:11:43;;;;;;;17.52;8.73;;;;;;;25.11;100.00;100534.22;20966030;28;20098;-73
2023/08/21 00:22:07;;;;;;;13.45;8.80;;;;;;;24.99;100.00;100528.47;20953659;28;20052;-72
2023/08/21 00:32:29;;;;;;;14.80;9.07;;;;;;;25.08;100.00;100520.84;20952438;28;20044;-73
2023/08/21 00:42:53;;;;;;;15.32;9.00;;;;;;;24.98;100.00;100515.00;20993344;28;20151;-73
2023/08/21 00:53:17;;;;;;;14.88;8.80;;;;;;;24.88;100.00;100506.41;20936996;28;20079;-73
2023/08/21 01:03:41;;;;;;;18.17;9.13;;;;;;;24.80;100.00;100495.13;20942961;28;20386;-73
2023/08/21 01:14:12;;;;;;;14.98;8.80;;;;;;;24.77;100.00;100491.69;20958095;28;20135;-73
2023/08/21 01:24:35;;;;;;;18.95;9.95;;;;;;;24.72;100.00;100477.53;20941797;28;20052;-73
2023/08/21 01:35:00;;;;;;;17.30;10.38;;;;;;;24.64;100.00;100483.28;20961955;28;20594;-73
2023/08/21 01:45:24;;;;;;;15.50;9.95;;;;;;;24.59;100.00;100480.81;20942112;28;20052;-74
2023/08/21 01:55:47;;;;;;;17.13;9.45;;;;;;;24.56;100.00;100486.34;20946608;28;20074;-73
2023/08/21 02:06:13;;;;;;;16.88;9.23;;;;;;;24.49;100.00;100484.00;20941469;28;20060;-73
2023/08/21 02:16:36;;;;;;;15.63;9.75;;;;;;;24.39;100.00;100488.94;20962537;28;20040;-73
2023/08/21 02:27:03;;;;;;;15.65;8.75;;;;;;;24.27;100.00;100496.72;20949294;28;20043;-73
2023/08/21 02:37:25;;;;;;;17.73;9.68;;;;;;;23.95;100.00;100490.91;20958466;28;20040;-73
2023/08/21 02:47:49;;;;;;;22.10;9.60;;;;;;;24.00;100.00;100493.41;20969683;28;20056;-73
2023/08/21 02:58:13;;;;;;;17.35;9.75;;;;;;;23.92;100.00;100484.75;20954938;28;20040;-73
2023/08/21 03:08:38;;;;;;;16.50;9.68;;;;;;;23.93;100.00;100492.78;20960303;28;20063;-73
2023/08/21 03:19:02;;;;;;;15.52;10.07;;;;;;;23.89;100.00;100493.00;20959822;28;20049;-73
2023/08/21 03:29:28;;;;;;;14.82;9.60;;;;;;;23.83;100.00;100505.78;20883370;28;20076;-73
2023/08/21 03:39:50;;;;;;;17.50;10.02;;;;;;;23.79;100.00;100514.97;20881436;28;20049;-73
2023/08/21 03:50:14;;;;;;;15.60;9.30;;;;;;;23.77;100.00;100521.34;20882877;28;20132;-73
2023/08/21 04:00:37;;;;;;;15.60;8.38;;;;;;;23.81;100.00;100523.00;20879205;28;20049;-73
2023/08/21 04:11:03;;;;;;;13.52;8.48;;;;;;;23.94;100.00;100526.03;20902881;28;20516;-73
2023/08/21 04:21:25;;;;;;;13.07;8.00;;;;;;;24.28;100.00;100534.44;20904494;28;20052;-73
2023/08/21 04:31:50;;;;;;;11.88;6.50;;;;;;;24.73;100.00;100520.66;20953444;28;20409;-73
2023/08/21 04:42:13;;;;;;;11.50;5.80;;;;;;;25.20;100.00;100518.44;20950203;28;20044;-73
2023/08/21 04:52:37;;;;;;;18.60;6.32;;;;;;;25.71;100.00;100508.72;20964630;28;20400;-73
2023/08/21 05:03:00;;;;;;;11.25;5.93;;;;;;;26.50;100.00;100509.97;20956094;28;20045;-73
2023/08/21 05:13:24;;;;;;;13.10;5.60;;;;;;;27.38;100.00;100496.88;20957632;28;20048;-73
2023/08/21 05:23:46;;;;;;;11.80;5.07;;;;;;;28.44;100.00;100501.31;20938333;28;20063;-74
2023/08/21 05:34:11;;;;;;;11.13;5.60;;;;;;;29.48;100.00;100479.16;20943204;28;20339;-73
2023/08/21 05:44:33;;;;;;;10.88;4.93;;;;;;;30.60;100.00;100484.06;20943846;28;20094;-73
2023/08/21 05:54:58;;;;;;;8.10;4.07;;;;;;;31.60;89.94;100484.81;20977689;28;20122;-73
2023/08/21 06:05:21;;;;;;;8.45;4.15;;;;;;;32.57;80.78;100480.88;20971428;28;20563;-73
2023/08/21 06:15:50;;;;;;;9.48;4.63;;;;;;;33.24;65.38;100470.81;20960794;28;20059;-72
2023/08/21 06:26:12;;;;;;;10.88;4.07;;;;;;;33.38;55.34;100475.13;20957823;28;20519;-72
2023/08/21 06:36:36;;;;;;;7.88;4.20;;;;;;;33.79;52.78;100475.25;20962229;28;20400;-72
2023/08/21 06:46:59;;;;;;;7.43;3.80;;;;;;;34.18;50.86;100483.75;20948196;28;20051;-72
2023/08/21 06:57:24;;;;;;;8.73;3.30;;;;;;;34.70;48.67;100485.53;20951333;28;20122;-72
2023/08/21 07:07:46;;;;;;;5.95;3.05;;;;;;;34.89;47.48;100490.25;20984953;28;20056;-72
2023/08/21 07:18:10;;;;;;;10.63;4.03;;;;;;;34.91;47.58;100496.47;20986764;28;20537;-72
2023/08/21 07:28:33;;;;;;;7.97;4.00;;;;;;;34.84;49.02;100507.13;20961510;28;20051;-72
2023/08/21 07:38:57;;;;;;;9.65;3.45;;;;;;;34.93;48.07;100495.31;20953494;28;20059;-72
2023/08/21 07:49:19;;;;;;;11.90;4.05;;;;;;;35.13;47.61;100507.22;20913428;28;20078;-72
2023/08/21 07:59:43;;;;;;;8.10;4.20;;;;;;;34.95;47.46;100512.53;20955975;28;20040;-72
2023/08/21 08:10:06;;;;;;;7.90;3.40;;;;;;;35.58;49.24;100522.25;20996133;28;20400;-72
2023/08/21 08:20:30;;;;;;;7.45;3.70;;;;;;;36.06;50.82;100524.19;20967300;28;20048;-72
2023/08/21 08:30:53;;;;;;;7.60;3.80;;;;;;;36.72;50.70;100519.63;21070855;28;20097;-73
2023/08/21 08:41:31;;;;;;;8.82;3.80;;;;;;;36.88;50.45;100520.88;20959758;28;20114;-72
2023/08/21 08:51:55;;;;;;;11.25;4.10;;;;;;;36.94;51.33;100521.16;20932340;28;20595;-73
2023/08/21 09:02:19;;;;;;;10.40;3.85;;;;;;;36.94;51.63;100526.66;20961749;28;20045;-72
2023/08/21 09:12:42;;;;;;;9.25;3.90;;;;;;;37.33;50.80;100523.72;20971898;28;20090;-73
2023/08/21 09:23:06;;;;;;;9.27;3.38;;;;;;;37.69;48.06;100524.66;20947031;28;20056;-72
2023/08/21 09:33:29;;;;;;;11.43;3.35;;;;;;;37.72;46.00;100524.38;20943136;28;20064;-73
2023/08/21 09:43:53;;;;;;;7.53;3.20;;;;;;;37.85;42.74;100533.13;20944989;28;20416;-73
2023/08/21 09:54:16;;;;;;;13.00;2.95;;;;;;;37.82;40.94;100526.00;20946592;28;20139;-73
2023/08/21 10:04:43;;;;;;;9.00;2.90;;;;;;;38.23;37.80;100516.25;20981672;28;20132;-72
2023/08/21 10:15:08;;;;;;;8.73;3.83;;;;;;;37.82;37.05;100526.00;20959527;28;20037;-72
2023/08/21 10:25:32;;;;;;;11.65;3.30;;;;;;;37.82;37.95;100534.28;20962164;28;20307;-73
2023/08/21 10:35:55;;;;;;;10.23;3.05;;;;;;;38.32;38.66;100524.59;20974853;28;20037;-73
2023/08/21 10:46:19;;;;;;;13.75;3.40;;;;;;;37.69;37.87;100519.16;20950011;28;20511;-73
2023/08/21 10:56:42;;;;;;;8.80;3.47;;;;;;;37.51;38.19;100530.13;20955530;28;20055;-73
2023/08/21 11:07:06;;;;;;;10.27;3.42;;;;;;;37.18;38.50;100519.75;20953827;28;20378;-73
2023/08/21 11:17:29;;;;;;;9.60;3.60;;;;;;;37.00;38.82;100523.28;20984278;28;20055;-73
2023/08/21 11:27:54;;;;;;;11.10;3.50;;;;;;;37.27;38.01;100511.44;20998109;28;20056;-73
2023/08/21 11:38:18;;;;;;;8.95;3.28;;;;;;;37.15;37.86;100509.94;20958070;28;20131;-73
2023/08/21 11:48:43;;;;;;;9.93;3.33;;;;;;;37.42;38.45;100503.50;20961421;28;20060;-73
2023/08/21 11:59:06;;;;;;;9.18;2.92;;;;;;;37.40;36.86;100492.66;20971594;28;20493;-73
2023/08/21 12:09:30;;;;;;;8.87;2.67;;;;;;;37.56;36.73;100491.06;20970035;28;20045;-73
2023/08/21 12:19:52;;;;;;;13.05;3.70;;;;;;;37.47;36.95;100482.75;20995363;28;20056;-73
2023/08/21 12:30:16;;;;;;;9.40;3.60;;;;;;;37.55;37.00;100472.84;20980827;28;20644;-73
2023/08/21 12:40:39;;;;;;;7.60;3.33;;;;;;;37.29;37.67;100469.94;20952176;28;20053;-73
2023/08/21 12:51:03;;;;;;;14.15;3.67;;;;;;;36.91;38.20;100469.13;20921215;28;20052;-73
2023/08/21 13:01:26;;;;;;;13.43;3.80;;;;;;;36.77;39.39;100455.88;20967433;28;20510;-73
2023/08/21 13:11:50;;;;;;;13.23;4.40;;;;;;;36.40;41.09;100460.47;20965870;28;20048;-73
2023/08/21 13:22:13;;;;;;;10.73;4.55;;;;;;;36.07;40.96;100456.31;20941642;28;20587;-73
2023/08/21 13:32:37;;;;;;;13.23;4.45;;;;;;;35.55;42.21;100456.63;20950669;28;20450;-71
2023/08/21 13:43:00;;;;;;;15.52;4.05;;;;;;;35.21;43.87;100447.03;20981384;28;20063;-73
2023/08/21 13:53:24;;;;;;;10.15;4.13;;;;;;;35.12;45.23;100454.19;20958665;28;20056;-73
2023/08/21 14:03:47;;;;;;;14.88;4.82;;;;;;;35.12;45.13;100464.31;20930975;28;20131;-73
2023/08/21 14:14:11;;;;;;;12.45;4.30;;;;;;;35.21;44.83;100458.03;20964374;28;20041;-72
2023/08/21 14:24:34;;;;;;;10.98;3.90;;;;;;;35.23;44.75;100445.03;20985920;28;20076;-73
2023/08/21 14:34:59;;;;;;;12.13;4.18;;;;;;;35.04;45.37;100439.47;20958842;28;20544;-72
2023/08/21 14:45:21;;;;;;;11.32;4.00;;;;;;;34.61;45.49;100451.53;20972485;28;20841;-72
2023/08/21 14:55:46;;;;;;;25.50;5.35;;;;;;;34.27;45.61;100445.44;20970816;28;20379;-73
2023/08/21 15:06:08;;;;;;;18.15;4.38;;;;;;;33.84;47.46;100436.50;20958530;28;20082;-73
2023/08/21 15:16:33;;;;;;;12.80;4.60;;;;;;;33.42;52.39;100436.41;20947052;28;20959;-72
2023/08/21 15:26:55;;;;;;;19.70;4.88;;;;;;;32.95;57.59;100443.06;20944133;28;20566;-73
2023/08/21 15:37:20;;;;;;;16.23;4.90;;;;;;;32.48;62.14;100433.28;20955913;28;20064;-73
2023/08/21 15:47:43;;;;;;;21.58;5.65;;;;;;;32.17;66.96;100442.19;20967994;28;20056;-73
2023/08/21 15:58:07;;;;;;;26.67;5.80;;;;;;;32.08;69.62;100443.75;20967132;28;20404;-73
2023/08/21 16:08:30;;;;;;;16.20;5.43;;;;;;;31.70;75.06;100429.53;20978894;28;20047;-73
2023/08/21 16:18:54;;;;;;;20.40;7.53;;;;;;;31.41;81.58;100437.16;20935746;28;20354;-73
2023/08/21 16:29:18;;;;;;;33.42;6.57;;;;;;;31.10;87.23;100444.97;20963267;28;20405;-72
2023/08/21 16:39:42;;;;;;;15.93;5.60;;;;;;;30.75;91.29;100452.97;20948674;28;20130;-72
2023/08/21 16:50:05;;;;;;;21.67;6.40;;;;;;;30.63;91.36;100451.16;20939423;28;20052;-74
2023/08/21 17:00:30;;;;;;;17.80;5.88;;;;;;;30.49;93.83;100454.00;20922345;28;20135;-72
2023/08/21 17:10:53;;;;;;;16.95;5.85;;;;;;;30.26;96.18;100452.03;20914477;28;20045;-73
2023/08/21 17:21:18;;;;;;;16.48;6.15;;;;;;;30.12;97.89;100463.03;20920887;28;20063;-74
2023/08/21 17:31:40;;;;;;;15.68;6.35;;;;;;;29.88;100.00;100466.44;20933655;28;20143;-74
2023/08/21 17:42:07;;;;;;;13.68;5.47;;;;;;;29.72;100.00;100471.19;20917392;28;20812;-74
2023/08/21 17:52:29;;;;;;;16.00;6.22;;;;;;;29.53;100.00;100482.47;20895034;28;20548;-74
2023/08/21 18:02:53;;;;;;;17.70;7.72;;;;;;;29.41;100.00;100493.28;20940717;28;20134;-74
2023/08/21 18:13:17;;;;;;;16.52;7.15;;;;;;;29.08;100.00;100501.81;20930724;28;20272;-74
2023/08/21 18:23:41;;;;;;;17.55;7.72;;;;;;;28.99;100.00;100500.56;20932772;28;20125;-73
2023/08/21 18:34:04;;;;;;;19.80;7.22;;;;;;;28.91;100.00;100503.75;20947113;28;20057;-74
2023/08/21 18:44:29;;;;;;;18.77;7.18;;;;;;;28.78;100.00;100515.53;20949451;28;20102;-74
2023/08/21 18:54:52;;;;;;;18.02;7.18;;;;;;;28.62;100.00;100509.28;20951094;28;20044;-74
2023/08/21 19:05:17;;;;;;;16.50;6.95;;;;;;;28.46;100.00;100509.38;20941148;28;20500;-75
2023/08/21 19:15:39;;;;;;;19.92;9.95;;;;;;;28.13;100.00;100510.47;20987331;28;20045;-74
2023/08/21 19:26:04;;;;;;;17.10;7.70;;;;;;;27.98;100.00;100514.09;20964007;28;20052;-74
2023/08/21 19:36:26;;;;;;;16.20;6.50;;;;;;;27.93;100.00;100509.91;20986761;28;20040;-75
2023/08/21 19:46:50;;;;;;;22.23;6.30;;;;;;;27.74;100.00;100513.75;20952321;28;20079;-74
2023/08/21 19:57:12;;;;;;;12.75;7.15;;;;;;;27.66;100.00;100512.44;20956985;28;20772;-74
2023/08/21 20:07:38;;;;;;;17.83;7.13;;;;;;;27.37;100.00;100509.53;20942471;28;20044;-74
2023/08/21 20:18:01;;;;;;;11.65;6.38;;;;;;;27.31;100.00;100514.44;20937215;28;20046;-74
2023/08/21 20:28:26;;;;;;;13.65;6.50;;;;;;;27.04;100.00;100508.78;20949354;28;20044;-74
2023/08/21 20:38:50;;;;;;;17.83;6.10;;;;;;;26.98;100.00;100509.13;20974201;28;20044;-73
2023/08/21 20:49:14;;;;;;;18.35;6.07;;;;;;;26.83;100.00;100493.69;20943701;28;20135;-74
2023/08/21 20:59:37;;;;;;;17.92;7.32;;;;;;;26.53;100.00;100483.59;20945498;28;20056;-74
2023/08/21 21:10:01;;;;;;;16.10;7.32;;;;;;;26.52;100.00;100479.13;20941046;28;20114;-74
2023/08/21 21:20:23;;;;;;;12.38;6.55;;;;;;;26.34;100.00;100452.19;20932791;28;20378;-74
2023/08/21 21:30:48;;;;;;;12.82;6.93;;;;;;;25.93;100.00;100462.50;20959502;28;20110;-74
2023/08/21 21:41:10;;;;;;;15.75;6.40;;;;;;;25.75;100.00;100453.50;20964011;28;20090;-73
2023/08/21 21:51:34;;;;;;;14.88;6.35;;;;;;;25.92;100.00;100452.63;20964474;28;20397;-74
2023/08/21 22:01:57;;;;;;;15.50;6.97;;;;;;;25.85;100.00;100454.78;20949675;28;20186;-73
2023/08/21 22:12:21;;;;;;;13.73;6.45;;;;;;;25.62;100.00;100447.84;20950151;28;20496;-73
2023/08/21 22:22:43;;;;;;;13.32;6.05;;;;;;;25.49;100.00;100437.72;20929986;28;20080;-73
2023/08/21 22:33:08;;;;;;;16.65;6.05;;;;;;;25.04;100.00;100428.28;20945071;28;20048;-74
2023/08/21 22:43:30;;;;;;;12.50;5.53;;;;;;;25.27;100.00;100422.56;20974105;28;20048;-74
2023/08/21 22:53:55;;;;;;;9.82;5.38;;;;;;;25.11;100.00;100420.72;20945368;28;20052;-74
2023/08/21 23:04:18;;;;;;;16.15;6.35;;;;;;;25.15;100.00;100427.72;20944310;28;20045;-74
2023/08/21 23:14:42;;;;;;;10.80;5.35;;;;;;;25.07;100.00;100422.72;20961413;28;20052;-74
2023/08/21 23:25:05;;;;;;;12.00;5.68;;;;;;;24.96;100.00;100419.66;20960216;28;20098;-73
2023/08/21 23:35:29;;;;;;;9.40;5.30;;;;;;;24.78;100.00;100423.22;20948425;28;20072;-74
2023/08/21 23:45:52;;;;;;;15.23;5.15;;;;;;;24.61;100.00;100413.25;20950403;28;20268;-74
2023/08/21 23:56:16;;;;;;;12.38;5.32;;;;;;;24.47;100.00;100416.59;20945436;28;20049;-75
